createdAt,value
2019-02-24T00:02:52.472Z,74.87
2019-02-24T00:05:56.363Z,75.08
2019-02-24T00:09:00.188Z,75.24
2019-02-24T00:12:04.088Z,75.48
2019-02-24T00:15:08.117Z,75.56
2019-02-24T00:18:11.931Z,75.65
2019-02-24T00:21:15.806Z,75.81
2019-02-24T00:24:19.745Z,76.21
2019-02-24T00:27:23.577Z,76.53
2019-02-24T00:30:27.413Z,76.77
2019-02-24T00:33:31.250Z,76.96
2019-02-24T00:36:35.099Z,76.56
2019-02-24T00:39:38.952Z,76.52
2019-02-24T00:42:42.783Z,76.66
2019-02-24T00:45:46.614Z,76.86
2019-02-24T00:48:50.451Z,77.02
2019-02-24T00:51:54.272Z,77.33
2019-02-24T00:54:58.073Z,77.56
2019-02-24T00:58:01.902Z,77.66
2019-02-24T01:01:05.723Z,77.61
2019-02-24T01:04:09.677Z,77.80
2019-02-24T01:07:13.564Z,78.06
2019-02-24T01:10:17.410Z,78.20
2019-02-24T01:13:21.341Z,78.14
2019-02-24T01:16:25.252Z,78.25
2019-02-24T01:19:29.105Z,78.15
2019-02-24T01:22:32.937Z,78.21
2019-02-24T01:25:36.843Z,78.58
2019-02-24T01:28:40.698Z,78.42
2019-02-24T01:31:44.514Z,78.37
2019-02-24T01:34:48.361Z,78.36
2019-02-24T01:37:52.270Z,78.47
2019-02-24T01:40:56.072Z,78.55
2019-02-24T01:43:59.893Z,78.91
2019-02-24T01:47:03.689Z,78.93
2019-02-24T01:50:08.452Z,78.92
2019-02-24T01:53:12.254Z,79.24
2019-02-24T01:56:16.103Z,79.39
2019-02-24T01:59:19.954Z,79.53
2019-02-24T02:02:23.840Z,79.61
2019-02-24T02:05:27.693Z,79.62
2019-02-24T02:08:31.590Z,79.65
2019-02-24T02:11:35.425Z,79.68
2019-02-24T02:14:39.323Z,79.89
2019-02-24T02:17:43.178Z,79.59
2019-02-24T02:20:47.130Z,79.38
2019-02-24T02:23:50.924Z,79.49
2019-02-24T02:26:55.319Z,79.41
2019-02-24T02:29:59.141Z,79.46
2019-02-24T02:33:02.969Z,79.46
2019-02-24T02:36:06.808Z,79.33
2019-02-24T02:39:10.609Z,79.09
2019-02-24T02:42:14.431Z,79.00
2019-02-24T02:45:18.309Z,78.94
2019-02-24T02:48:22.209Z,79.04
2019-02-24T02:51:26.070Z,78.99
2019-02-24T02:54:29.891Z,78.97
2019-02-24T02:57:33.782Z,78.94
2019-02-24T03:00:37.622Z,78.86
2019-02-24T03:03:41.446Z,78.77
2019-02-24T03:06:53.140Z,78.74
2019-02-24T03:09:57.030Z,78.67
2019-02-24T03:13:00.863Z,78.71
2019-02-24T03:16:04.833Z,78.74
2019-02-24T03:19:08.715Z,78.86
2019-02-24T03:22:12.563Z,78.89
2019-02-24T03:25:16.384Z,78.97
2019-02-24T03:28:20.299Z,78.99
2019-02-24T03:31:24.114Z,79.12
2019-02-24T03:34:27.937Z,79.16
2019-02-24T03:37:31.855Z,79.12
2019-02-24T03:40:35.944Z,79.10
2019-02-24T03:43:39.844Z,79.13
2019-02-24T03:46:43.753Z,79.25
2019-02-24T03:49:47.546Z,79.34
2019-02-24T03:52:51.451Z,79.42
2019-02-24T03:55:57.530Z,79.39
2019-02-24T03:59:01.166Z,79.30
2019-02-24T04:02:05.034Z,79.15
2019-02-24T04:05:08.995Z,79.02
2019-02-24T04:08:12.817Z,78.95
2019-02-24T04:11:16.692Z,78.46
2019-02-24T04:14:20.552Z,78.26
2019-02-24T04:17:25.756Z,78.49
2019-02-24T04:20:29.541Z,78.48
2019-02-24T04:23:33.482Z,78.50
2019-02-24T04:26:37.300Z,78.52
2019-02-24T04:29:41.178Z,78.52
2019-02-24T04:32:44.961Z,78.34
2019-02-24T04:35:48.823Z,78.29
2019-02-24T04:38:52.661Z,78.46
2019-02-24T04:41:56.520Z,78.79
2019-02-24T04:45:00.316Z,79.13
2019-02-24T04:48:04.287Z,79.20
2019-02-24T04:51:08.148Z,79.26
2019-02-24T04:54:11.969Z,79.36
2019-02-24T04:57:15.883Z,79.61
2019-02-24T05:00:19.722Z,79.80
2019-02-24T05:03:23.621Z,79.75
2019-02-24T05:06:27.458Z,79.80
2019-02-24T05:09:31.299Z,80.02
2019-02-24T05:12:35.109Z,79.93
2019-02-24T05:15:38.967Z,80.00
2019-02-24T05:18:42.807Z,80.25
2019-02-24T05:21:46.689Z,80.20
2019-02-24T05:24:50.498Z,80.41
2019-02-24T05:27:54.446Z,80.52
2019-02-24T05:30:58.347Z,80.76
2019-02-24T05:34:02.189Z,80.88
2019-02-24T05:37:06.044Z,81.00
2019-02-24T05:40:10.006Z,80.90
2019-02-24T05:43:13.848Z,81.16
2019-02-24T05:46:17.675Z,81.14
2019-02-24T05:49:21.518Z,80.88
2019-02-24T05:52:25.352Z,80.92
2019-02-24T05:55:29.175Z,81.12
2019-02-24T05:58:32.977Z,81.23
2019-02-24T06:01:36.842Z,81.50
2019-02-24T06:04:40.667Z,81.76
2019-02-24T06:07:44.554Z,81.91
2019-02-24T06:10:48.428Z,81.85
2019-02-24T06:13:52.301Z,81.77
2019-02-24T06:16:56.088Z,81.48
2019-02-24T06:19:59.937Z,81.65
2019-02-24T06:23:03.775Z,81.74
2019-02-24T06:26:07.644Z,81.91
2019-02-24T06:29:11.464Z,81.96
2019-02-24T06:32:15.282Z,81.73
2019-02-24T06:35:19.218Z,81.75
2019-02-24T06:38:23.112Z,81.91
2019-02-24T06:41:26.932Z,81.96
2019-02-24T06:44:30.781Z,81.53
2019-02-24T06:47:34.605Z,80.76
2019-02-24T06:50:52.935Z,81.26
2019-02-24T06:53:56.827Z,81.73
2019-02-24T06:57:00.689Z,82.06
2019-02-24T07:00:13.556Z,82.15
2019-02-24T07:03:10.343Z,82.20
2019-02-24T07:06:14.227Z,82.42
2019-02-24T07:09:19.146Z,82.60
2019-02-24T07:12:23.107Z,82.50
2019-02-24T07:15:26.901Z,82.37
2019-02-24T07:18:30.758Z,82.38
2019-02-24T07:21:34.672Z,82.39
2019-02-24T07:24:38.498Z,82.17
2019-02-24T07:27:42.375Z,82.31
2019-02-24T07:30:46.243Z,82.46
2019-02-24T07:33:50.343Z,82.49
2019-02-24T07:36:54.177Z,82.70
2019-02-24T07:40:00.761Z,82.66
2019-02-24T07:43:04.833Z,82.32
2019-02-24T07:46:11.968Z,82.24
2019-02-24T07:49:15.921Z,82.24
2019-02-24T07:52:25.417Z,82.20
2019-02-24T07:55:32.535Z,82.15
2019-02-24T07:58:42.592Z,82.09
2019-02-24T08:01:42.680Z,81.90
2019-02-24T08:04:46.690Z,81.17
2019-02-24T08:07:50.667Z,81.11
2019-02-24T08:10:54.611Z,81.11
2019-02-24T08:13:58.435Z,81.13
2019-02-24T08:17:05.395Z,81.23
2019-02-24T08:20:16.088Z,81.36
2019-02-24T08:23:20.607Z,81.27
2019-02-24T08:26:28.330Z,81.21
2019-02-24T08:29:33.313Z,81.30
2019-02-24T08:32:40.125Z,81.29
2019-02-24T09:00:16.081Z,76.49
2019-02-24T09:06:57.961Z,75.48
2019-02-24T09:10:02.834Z,75.61
2019-02-24T09:13:06.919Z,75.60
2019-02-24T09:16:10.812Z,75.10
2019-02-24T09:19:14.775Z,75.62
2019-02-24T09:22:19.229Z,76.03
2019-02-24T09:25:23.139Z,76.07
2019-02-24T09:28:28.915Z,76.11
2019-02-24T09:31:32.798Z,76.58
2019-02-24T09:34:36.727Z,76.07
2019-02-24T09:37:40.813Z,75.68
2019-02-24T09:40:44.703Z,74.98
2019-02-24T09:43:48.577Z,74.79
2019-02-24T09:46:53.280Z,75.00
2019-02-24T09:49:57.078Z,74.58
2019-02-24T09:53:00.986Z,72.99
2019-02-24T09:56:04.854Z,73.25
2019-02-24T09:59:08.692Z,72.80
2019-02-24T10:02:12.683Z,71.74
2019-02-24T10:05:16.677Z,72.24
2019-02-24T10:08:20.582Z,71.73
2019-02-24T10:11:24.552Z,71.45
2019-02-24T10:14:28.470Z,71.23
2019-02-24T10:17:32.370Z,68.62
2019-02-24T10:20:36.284Z,68.69
2019-02-24T10:23:40.165Z,69.10
2019-02-24T10:26:44.074Z,68.40
2019-02-24T10:29:47.924Z,69.05
2019-02-24T10:32:52.527Z,69.20
2019-02-24T10:35:56.455Z,68.94
2019-02-24T10:39:00.305Z,69.40
2019-02-24T10:42:04.155Z,68.98
2019-02-24T10:45:10.002Z,67.96
2019-02-24T10:48:14.466Z,68.28
2019-02-24T10:51:18.343Z,68.28
2019-02-24T10:54:22.140Z,68.29
2019-02-24T10:57:25.972Z,68.97
2019-02-24T11:00:29.862Z,69.25
2019-02-24T11:03:35.453Z,68.73
2019-02-24T11:06:39.239Z,69.32
2019-02-24T11:09:43.059Z,69.07
2019-02-24T11:12:46.888Z,69.28
2019-02-24T11:15:50.726Z,69.18
2019-02-24T11:18:54.526Z,68.33
2019-02-24T11:21:58.428Z,68.42
2019-02-24T11:25:02.258Z,69.01
2019-02-24T11:28:06.142Z,66.83
2019-02-24T11:31:14.158Z,65.95
2019-02-24T11:34:23.439Z,65.18
2019-02-24T11:37:52.978Z,66.69
2019-02-24T11:40:59.080Z,66.26
2019-02-24T11:44:04.029Z,66.95
2019-02-24T11:47:12.607Z,66.03
2019-02-24T11:50:18.061Z,66.19
2019-02-24T11:53:23.517Z,66.51
2019-02-24T11:56:28.863Z,67.13
2019-02-24T11:59:34.498Z,66.31
2019-02-24T12:02:41.726Z,65.74
2019-02-24T12:05:47.094Z,66.72
2019-02-24T12:08:52.007Z,66.22
2019-02-24T12:11:57.244Z,65.56
2019-02-24T12:15:03.003Z,66.12
2019-02-24T12:18:08.389Z,66.11
2019-02-24T12:21:18.825Z,65.72
2019-02-24T12:24:24.285Z,65.05
2019-02-24T12:27:29.493Z,65.25
2019-02-24T12:30:34.890Z,64.51
2019-02-24T12:33:40.511Z,64.52
2019-02-24T12:36:45.578Z,65.08
2019-02-24T12:39:50.421Z,66.10
2019-02-24T12:42:54.904Z,66.27
2019-02-24T12:46:04.040Z,66.12
2019-02-24T12:49:09.788Z,66.07
2019-02-24T12:52:15.333Z,66.16
2019-02-24T12:55:20.841Z,66.14
2019-02-24T12:58:25.991Z,65.18
2019-02-24T13:01:31.526Z,63.45
2019-02-24T13:04:38.335Z,63.85
2019-02-24T13:07:43.500Z,62.44
2019-02-24T13:10:48.825Z,63.09
2019-02-24T13:13:54.270Z,62.24
2019-02-24T13:16:59.636Z,60.23
2019-02-24T13:20:04.673Z,60.58
2019-02-24T13:23:11.541Z,60.54
2019-02-24T13:26:16.992Z,59.39
2019-02-24T13:29:20.944Z,58.88
2019-02-24T13:32:27.080Z,60.08
2019-02-24T13:35:30.937Z,59.35
2019-02-24T13:38:34.784Z,60.62
2019-02-24T13:41:38.682Z,61.39
2019-02-24T13:44:42.491Z,61.23
2019-02-24T13:47:46.499Z,60.43
2019-02-24T13:50:50.419Z,59.25
2019-02-24T13:53:54.241Z,57.12
2019-02-24T13:56:58.136Z,57.52
2019-02-24T14:00:01.996Z,57.15
2019-02-24T14:03:05.832Z,55.57
2019-02-24T14:06:09.644Z,55.86
2019-02-24T14:09:13.831Z,56.76
2019-02-24T14:12:17.721Z,55.95
2019-02-24T14:15:21.609Z,55.45
2019-02-24T14:18:25.526Z,57.69
2019-02-24T14:21:29.461Z,58.27
2019-02-24T14:24:33.310Z,58.86
2019-02-24T14:27:37.352Z,58.98
2019-02-24T14:30:41.209Z,59.65
2019-02-24T14:33:45.025Z,60.26
2019-02-24T14:36:48.846Z,61.18
2019-02-24T14:39:52.703Z,61.29
2019-02-24T14:42:56.561Z,60.81
2019-02-24T14:46:00.498Z,61.97
2019-02-24T14:49:04.411Z,61.04
2019-02-24T14:52:08.273Z,60.84
2019-02-24T14:55:12.353Z,61.24
2019-02-24T14:58:16.296Z,60.98
2019-02-24T15:01:20.181Z,61.09
2019-02-24T15:04:24.016Z,61.52
2019-02-24T15:07:27.846Z,61.39
2019-02-24T15:10:31.682Z,60.55
2019-02-24T15:13:35.507Z,61.92
2019-02-24T15:16:40.297Z,61.28
2019-02-24T15:19:44.141Z,61.72
2019-02-24T15:22:47.948Z,62.13
2019-02-24T15:25:51.868Z,62.90
2019-02-24T15:28:55.728Z,62.94
2019-02-24T15:31:59.545Z,63.04
2019-02-24T15:35:03.367Z,62.43
2019-02-24T15:38:07.342Z,63.39
2019-02-24T15:41:11.162Z,62.48
2019-02-24T15:44:14.990Z,62.60
2019-02-24T15:47:18.801Z,61.95
2019-02-24T15:50:22.713Z,59.10
2019-02-24T15:53:26.523Z,57.22
2019-02-24T15:56:31.097Z,56.64
2019-02-24T15:59:34.908Z,54.31
2019-02-24T16:02:38.711Z,54.15
2019-02-24T16:05:42.587Z,54.27
2019-02-24T16:08:46.394Z,56.17
2019-02-24T16:11:50.202Z,56.61
2019-02-24T16:14:54.031Z,57.17
2019-02-24T16:17:57.877Z,58.01
2019-02-24T16:21:01.683Z,59.23
2019-02-24T16:24:05.661Z,60.86
2019-02-24T16:27:09.452Z,61.79
2019-02-24T16:30:13.465Z,62.92
2019-02-24T16:33:17.278Z,64.96
2019-02-24T16:36:21.109Z,66.30
2019-02-24T16:39:24.946Z,66.39
2019-02-24T16:42:28.766Z,65.54
2019-02-24T16:45:32.661Z,64.88
2019-02-24T16:48:36.813Z,64.44
2019-02-24T16:51:40.634Z,65.13
2019-02-24T16:54:52.496Z,65.60
2019-02-24T16:57:50.055Z,66.47
2019-02-24T17:00:53.876Z,66.87
2019-02-24T17:03:57.682Z,67.24
2019-02-24T17:07:01.626Z,67.46
2019-02-24T17:10:06.017Z,68.37
2019-02-24T17:13:09.853Z,69.62
2019-02-24T17:16:13.825Z,69.94
2019-02-24T17:19:17.638Z,70.16
2019-02-24T17:22:21.444Z,70.40
2019-02-24T17:25:25.401Z,70.59
2019-02-24T17:28:29.322Z,70.97
2019-02-24T17:31:33.157Z,71.36
2019-02-24T17:34:37.014Z,72.52
2019-02-24T17:37:40.975Z,75.29
2019-02-24T17:40:44.827Z,76.70
2019-02-24T17:43:48.664Z,77.56
2019-02-24T17:46:52.530Z,78.12
2019-02-24T17:49:56.331Z,77.89
2019-02-24T17:53:00.177Z,77.07
2019-02-24T17:56:04.006Z,76.99
2019-02-24T17:59:07.834Z,77.19
2019-02-24T18:02:11.682Z,77.57
2019-02-24T18:05:15.568Z,77.70
2019-02-24T18:08:27.899Z,77.90
2019-02-24T18:11:26.155Z,78.07
2019-02-24T18:14:29.968Z,78.22
2019-02-24T18:17:34.230Z,78.37
2019-02-24T18:20:38.104Z,78.54
2019-02-24T18:23:41.960Z,78.64
2019-02-24T18:26:46.071Z,78.90
2019-02-24T18:29:49.934Z,79.25
2019-02-24T18:32:54.047Z,79.45
2019-02-24T18:35:57.863Z,79.72
2019-02-24T18:39:01.687Z,79.89
2019-02-24T18:42:05.681Z,79.91
2019-02-24T18:45:10.087Z,79.92
2019-02-24T18:48:14.043Z,80.37
2019-02-24T18:51:17.850Z,80.46
2019-02-24T18:54:21.873Z,80.63
2019-02-24T18:57:25.692Z,80.47
2019-02-24T19:00:29.613Z,80.41
2019-02-24T19:03:33.549Z,80.72
2019-02-24T19:06:39.405Z,80.83
2019-02-24T19:09:43.002Z,80.96
2019-02-24T19:12:47.006Z,81.09
2019-02-24T19:15:51.445Z,81.50
2019-02-24T19:18:55.309Z,81.24
2019-02-24T19:21:59.255Z,81.27
2019-02-24T19:25:03.653Z,81.67
2019-02-24T19:28:07.575Z,81.39
2019-02-24T19:31:11.430Z,81.55
2019-02-24T19:34:15.188Z,83.03
2019-02-24T19:37:19.047Z,85.09
2019-02-24T19:40:23.355Z,84.92
2019-02-24T19:43:27.525Z,85.16
2019-02-24T19:46:31.638Z,85.22
2019-02-24T19:49:35.699Z,85.11
2019-02-24T19:52:39.783Z,85.01
2019-02-24T19:55:43.925Z,84.67
2019-02-24T19:58:49.115Z,84.57
2019-02-24T20:01:53.131Z,84.59
2019-02-24T20:04:57.156Z,84.67
2019-02-24T20:08:01.110Z,84.67
2019-02-24T20:11:05.364Z,84.75
2019-02-24T20:14:09.473Z,84.64
2019-02-24T20:17:13.816Z,84.28
2019-02-24T20:20:20.207Z,84.65
2019-02-24T20:23:24.310Z,85.08
2019-02-24T20:26:28.385Z,85.12
2019-02-24T20:29:33.485Z,85.25
2019-02-24T20:32:37.505Z,85.16
2019-02-24T20:35:41.554Z,84.78
2019-02-24T20:38:45.671Z,84.69
2019-02-24T20:41:50.451Z,85.21
2019-02-24T20:44:56.030Z,87.38
2019-02-24T20:48:00.397Z,88.00
2019-02-24T20:51:04.854Z,87.73
2019-02-24T20:54:10.266Z,88.28
2019-02-24T20:57:17.371Z,88.29
2019-02-24T21:00:24.315Z,88.47
2019-02-24T21:03:28.643Z,88.26
2019-02-24T21:06:33.413Z,88.18
2019-02-24T21:09:37.780Z,87.93
2019-02-24T21:12:41.922Z,87.96
2019-02-24T21:15:46.307Z,88.00
2019-02-24T21:19:03.574Z,88.06
2019-02-24T21:22:07.975Z,88.32
2019-02-24T21:25:12.287Z,88.41
2019-02-24T21:28:16.715Z,88.39
